Time;durP1;ratioP1;P1;durP2;ratioP2;P2;SDS_P1;SDS_P2;PMS_P1;PMS_P2;Temp;Humidity;BMP_temperature;BMP_pressure;BME280_temperature;BME280_humidity;BME280_pressure;Samples;Min_cycle;Max_cycle;Signal;HPM_P1;HPM_P2
2022/09/18 00:01:42;;;;;;;;;;;;;;;14.85;59.18;98198.12;4481046;32;34043;-84
2022/09/18 00:04:12;;;;;;;;;;;;;;;14.74;59.63;98200.06;4482227;32;34308;-83
2022/09/18 00:06:40;;;;;;;;;;;;;;;15.17;58.84;98201.81;4481995;32;35154;-86
2022/09/18 00:09:08;;;;;;;;;;;;;;;15.74;56.36;98191.84;4455755;32;34325;-80
2022/09/18 00:11:38;;;;;;;;;;;;;;;14.69;58.87;98186.25;4474529;32;34164;-84
2022/09/18 00:14:06;;;;;;;;;;;;;;;15.40;57.43;98194.31;4480411;32;33514;-82
2022/09/18 00:16:34;;;;;;;;;;;;;;;15.51;56.81;98187.09;4481798;32;34359;-82
2022/09/18 00:19:01;;;;;;;;;;;;;;;15.05;57.71;98190.72;4474743;32;35385;-82
2022/09/18 00:21:30;;;;;;;;;;;;;;;15.16;57.62;98181.81;4481681;32;34161;-87
2022/09/18 00:23:58;;;;;;;;;;;;;;;14.80;58.34;98189.50;4481962;32;33490;-81
2022/09/18 00:26:26;;;;;;;;;;;;;;;14.65;58.11;98184.59;4468341;32;33968;-88
2022/09/18 00:28:54;;;;;;;;;;;;;;;14.90;57.77;98192.78;4478370;32;34255;-82
2022/09/18 00:31:25;;;;;;;;;;;;;;;15.03;57.06;98189.03;4454112;32;33983;-89
2022/09/18 00:33:52;;;;;;;;;;;;;;;15.13;56.54;98180.13;4481532;32;32995;-83
2022/09/18 00:36:20;;;;;;;;;;;;;;;14.58;58.22;98189.06;4483592;32;35005;-83
2022/09/18 00:38:47;;;;;;;;;;;;;;;14.34;59.23;98192.94;4470646;32;35175;-83
2022/09/18 00:41:22;;;;;;;;;;;;;;;14.30;59.14;98189.53;4484094;32;35065;-82
2022/09/18 00:43:50;;;;;;;;;;;;;;;13.94;59.83;98198.84;4470666;32;34256;-84
2022/09/18 00:46:27;;;;;;;;;;;;;;;13.42;61.56;98185.75;4469191;32;34092;-83
2022/09/18 00:49:17;;;;;;;;;;;;;;;13.75;60.33;98195.69;4456128;32;34102;-82
2022/09/18 00:51:45;;;;;;;;;;;;;;;13.77;60.16;98191.28;4469813;32;33929;-86
2022/09/18 00:54:23;;;;;;;;;;;;;;;13.98;58.50;98186.59;4482088;31;33399;-84
2022/09/18 00:56:51;;;;;;;;;;;;;;;14.56;57.47;98190.84;4458363;32;34326;-84
2022/09/18 00:59:21;;;;;;;;;;;;;;;14.23;57.94;98184.47;4458345;32;34275;-88
2022/09/18 01:01:48;;;;;;;;;;;;;;;14.02;58.12;98189.16;4469301;32;34111;-86
2022/09/18 01:04:15;;;;;;;;;;;;;;;14.05;58.15;98194.34;4483856;32;33128;-82
2022/09/18 01:06:45;;;;;;;;;;;;;;;13.14;60.14;98202.59;4477452;32;34212;-84
2022/09/18 01:09:16;;;;;;;;;;;;;;;13.72;59.48;98211.34;4454277;32;34942;-88
2022/09/18 01:11:59;;;;;;;;;;;;;;;14.75;55.80;98209.63;4455838;32;34926;-83
2022/09/18 01:14:26;;;;;;;;;;;;;;;14.74;55.12;98205.28;4454618;32;34240;-88
2022/09/18 01:16:53;;;;;;;;;;;;;;;13.77;57.59;98216.50;4471512;32;34029;-82
2022/09/18 01:19:39;;;;;;;;;;;;;;;13.61;57.91;98219.31;4478170;32;35138;-87
2022/09/18 01:22:24;;;;;;;;;;;;;;;14.27;56.63;98225.22;4468074;32;33439;-88
2022/09/18 01:24:52;;;;;;;;;;;;;;;13.95;56.79;98218.81;4454316;32;33265;-82
2022/09/18 01:27:42;;;;;;;;;;;;;;;14.09;56.65;98226.38;4470582;32;34869;-86
2022/09/18 01:30:10;;;;;;;;;;;;;;;13.69;57.66;98239.19;4460333;32;34254;-83
2022/09/18 01:32:40;;;;;;;;;;;;;;;14.60;55.01;98240.31;4453833;32;35034;-83
2022/09/18 01:35:07;;;;;;;;;;;;;;;14.31;55.56;98246.00;4482444;32;33595;-84
2022/09/18 01:38:14;;;;;;;;;;;;;;;15.03;53.82;98255.13;4483050;31;34204;-82
2022/09/18 01:40:43;;;;;;;;;;;;;;;14.53;54.12;98264.78;4469251;32;35147;-88
2022/09/18 01:43:12;;;;;;;;;;;;;;;14.76;53.39;98261.75;4466627;32;34841;-86
2022/09/18 01:45:41;;;;;;;;;;;;;;;15.24;51.75;98269.53;4454824;32;33784;-84
2022/09/18 01:48:11;;;;;;;;;;;;;;;15.22;51.51;98275.66;4454736;32;33855;-84
2022/09/18 01:50:44;;;;;;;;;;;;;;;14.47;54.01;98283.12;4453894;32;35242;-84
2022/09/18 01:53:18;;;;;;;;;;;;;;;14.64;53.58;98287.22;4468165;32;35076;-83
2022/09/18 01:55:48;;;;;;;;;;;;;;;13.93;55.59;98293.53;4455158;32;34009;-83
2022/09/18 01:58:17;;;;;;;;;;;;;;;15.14;52.12;98291.47;4467983;32;35016;-90
2022/09/18 02:00:47;;;;;;;;;;;;;;;14.36;53.48;98291.13;4454414;32;34025;-83
2022/09/18 02:03:15;;;;;;;;;;;;;;;14.74;53.25;98296.59;4469362;32;33930;-82
2022/09/18 02:05:44;;;;;;;;;;;;;;;14.31;53.63;98289.47;4467796;32;33198;-84
2022/09/18 02:08:31;;;;;;;;;;;;;;;14.74;52.03;98299.22;4454271;32;34093;-83
2022/09/18 02:11:12;;;;;;;;;;;;;;;15.28;51.02;98310.34;4455252;32;34265;-83
2022/09/18 02:13:44;;;;;;;;;;;;;;;14.15;53.59;98314.91;4453562;32;33958;-83
2022/09/18 02:16:14;;;;;;;;;;;;;;;13.76;54.49;98321.56;4454358;32;32912;-83
2022/09/18 02:18:42;;;;;;;;;;;;;;;14.57;52.78;98313.41;4453983;32;34990;-83
2022/09/18 02:21:10;;;;;;;;;;;;;;;15.06;51.38;98309.91;4464418;32;34424;-84
2022/09/18 02:23:38;;;;;;;;;;;;;;;14.90;51.59;98321.53;4469254;32;34329;-83
2022/09/18 02:26:06;;;;;;;;;;;;;;;15.21;50.42;98324.41;4469354;32;33746;-83
2022/09/18 02:28:33;;;;;;;;;;;;;;;15.25;50.44;98331.31;4483557;32;34214;-83
2022/09/18 02:31:00;;;;;;;;;;;;;;;15.27;49.58;98321.69;4467988;32;34495;-82
2022/09/18 02:33:31;;;;;;;;;;;;;;;15.56;48.43;98333.28;4467623;32;34233;-85
2022/09/18 02:36:19;;;;;;;;;;;;;;;14.70;50.92;98334.03;4469387;32;34882;-83
2022/09/18 02:38:54;;;;;;;;;;;;;;;14.47;51.77;98345.72;4468077;32;34878;-90
2022/09/18 02:41:28;;;;;;;;;;;;;;;14.43;51.25;98345.78;4467881;32;33890;-82
2022/09/18 02:44:04;;;;;;;;;;;;;;;14.47;51.64;98353.53;4467864;32;34986;-82
2022/09/18 02:46:46;;;;;;;;;;;;;;;15.63;48.33;98347.09;4467644;32;32618;-83
2022/09/18 02:49:15;;;;;;;;;;;;;;;14.74;50.17;98351.41;4467958;32;33936;-82
2022/09/18 02:51:51;;;;;;;;;;;;;;;15.17;49.01;98341.03;4453696;32;34432;-87
2022/09/18 02:54:26;;;;;;;;;;;;;;;14.44;51.00;98352.72;4453746;32;34815;-82
2022/09/18 02:57:10;;;;;;;;;;;;;;;15.26;48.70;98351.28;4474859;32;33312;-82
2022/09/18 02:59:38;;;;;;;;;;;;;;;14.88;48.40;98346.78;4472727;32;34100;-88
2022/09/18 03:02:06;;;;;;;;;;;;;;;15.37;48.60;98343.25;4459196;32;35347;-82
2022/09/18 03:04:33;;;;;;;;;;;;;;;13.10;53.05;98350.94;4465767;32;34203;-82
2022/09/18 03:07:01;;;;;;;;;;;;;;;13.79;52.00;98358.00;4467818;32;34452;-86
2022/09/18 03:09:28;;;;;;;;;;;;;;;14.04;51.44;98358.53;4459060;32;34600;-82
2022/09/18 03:11:56;;;;;;;;;;;;;;;14.60;49.95;98347.25;4456457;32;34127;-87
2022/09/18 03:14:24;;;;;;;;;;;;;;;14.92;48.92;98358.88;4461134;32;34167;-82
2022/09/18 03:16:52;;;;;;;;;;;;;;;15.36;47.07;98357.22;4451843;32;33505;-82
2022/09/18 03:19:19;;;;;;;;;;;;;;;15.30;47.86;98359.94;4456933;32;33843;-89
2022/09/18 03:21:46;;;;;;;;;;;;;;;15.38;47.55;98365.00;4463785;32;34113;-82
2022/09/18 03:24:13;;;;;;;;;;;;;;;15.08;48.53;98377.78;4451934;32;34924;-82
2022/09/18 03:26:41;;;;;;;;;;;;;;;14.99;48.03;98377.91;4452066;32;33255;-85
2022/09/18 03:29:09;;;;;;;;;;;;;;;15.25;47.45;98378.31;4455771;32;34338;-84
2022/09/18 03:31:37;;;;;;;;;;;;;;;15.45;47.34;98377.06;4464449;32;34067;-83
2022/09/18 03:34:05;;;;;;;;;;;;;;;15.20;47.96;98382.75;4452319;32;34369;-83
2022/09/18 03:36:32;;;;;;;;;;;;;;;15.67;46.93;98388.84;4455885;32;34045;-83
2022/09/18 03:38:59;;;;;;;;;;;;;;;15.22;47.89;98386.19;4463276;32;34381;-86
2022/09/18 03:41:28;;;;;;;;;;;;;;;15.96;46.33;98390.84;4451673;32;35067;-83
2022/09/18 03:43:55;;;;;;;;;;;;;;;15.88;46.40;98392.78;4451881;32;34079;-83
2022/09/18 03:46:23;;;;;;;;;;;;;;;15.73;46.69;98390.47;4451375;32;34151;-82
2022/09/18 03:48:51;;;;;;;;;;;;;;;16.51;45.23;98402.69;4451477;32;34274;-82
2022/09/18 03:51:20;;;;;;;;;;;;;;;17.10;43.85;98394.31;4451483;32;35248;-82
2022/09/18 03:53:49;;;;;;;;;;;;;;;16.44;45.06;98405.47;4451462;32;33724;-83
2022/09/18 03:56:17;;;;;;;;;;;;;;;16.72;44.92;98409.19;4451840;32;34280;-83
2022/09/18 03:58:47;;;;;;;;;;;;;;;16.32;45.39;98409.22;4451475;32;34124;-84
2022/09/18 04:01:16;;;;;;;;;;;;;;;16.26;45.67;98409.41;4465547;32;34716;-83
2022/09/18 04:03:45;;;;;;;;;;;;;;;16.58;44.48;98407.78;4468324;32;34181;-83
2022/09/18 04:06:17;;;;;;;;;;;;;;;16.76;44.32;98410.00;4480609;32;32747;-83
2022/09/18 04:08:48;;;;;;;;;;;;;;;15.62;47.05;98418.53;4466742;32;34186;-84
2022/09/18 04:11:18;;;;;;;;;;;;;;;15.92;46.44;98411.88;4469170;32;33878;-84
2022/09/18 04:13:45;;;;;;;;;;;;;;;15.64;47.34;98414.13;4454893;32;34938;-82
2022/09/18 04:16:13;;;;;;;;;;;;;;;15.66;47.17;98409.78;4468890;32;33802;-86
2022/09/18 04:18:40;;;;;;;;;;;;;;;14.95;48.49;98425.84;4469007;32;34613;-88
2022/09/18 04:21:07;;;;;;;;;;;;;;;15.53;47.39;98424.78;4468357;32;34437;-86
2022/09/18 04:23:35;;;;;;;;;;;;;;;15.40;47.75;98425.91;4483237;32;34171;-82
2022/09/18 04:26:07;;;;;;;;;;;;;;;15.19;48.32;98427.16;4483019;32;33342;-82
2022/09/18 04:28:38;;;;;;;;;;;;;;;15.16;48.22;98422.87;4477571;31;33892;-82
2022/09/18 04:31:05;;;;;;;;;;;;;;;15.40;47.78;98424.16;4484529;32;34420;-81
2022/09/18 04:33:33;;;;;;;;;;;;;;;15.30;47.66;98428.72;4480060;32;33934;-87
2022/09/18 04:36:04;;;;;;;;;;;;;;;14.84;48.64;98431.22;4469067;32;32820;-85
2022/09/18 04:38:33;;;;;;;;;;;;;;;14.67;49.33;98425.44;4477346;32;35045;-82
2022/09/18 04:41:00;;;;;;;;;;;;;;;15.07;48.08;98438.69;4469630;32;34201;-82
2022/09/18 04:43:28;;;;;;;;;;;;;;;14.72;49.98;98441.88;4480658;32;34273;-87
2022/09/18 04:45:56;;;;;;;;;;;;;;;14.69;49.41;98434.94;4469463;32;34066;-82
2022/09/18 04:48:23;;;;;;;;;;;;;;;15.14;47.98;98439.44;4484175;32;33981;-83
2022/09/18 04:50:50;;;;;;;;;;;;;;;14.90;49.28;98449.41;4484514;32;35825;-82
2022/09/18 04:53:18;;;;;;;;;;;;;;;15.42;47.90;98445.91;4469351;32;33859;-88
2022/09/18 04:55:45;;;;;;;;;;;;;;;14.82;49.52;98456.50;4468418;32;33282;-83
2022/09/18 04:58:15;;;;;;;;;;;;;;;15.87;47.72;98455.53;4469381;32;34616;-83
2022/09/18 05:00:42;;;;;;;;;;;;;;;15.27;47.69;98448.78;4484477;32;34372;-87
2022/09/18 05:03:10;;;;;;;;;;;;;;;15.62;46.50;98452.50;4471714;32;35006;-83
2022/09/18 05:05:37;;;;;;;;;;;;;;;15.68;46.77;98447.19;4470182;32;33207;-86
2022/09/18 05:08:05;;;;;;;;;;;;;;;14.78;48.74;98465.25;4474795;32;33792;-83
2022/09/18 05:10:33;;;;;;;;;;;;;;;14.85;48.54;98466.91;4484155;32;33826;-83
2022/09/18 05:13:01;;;;;;;;;;;;;;;15.68;46.98;98452.41;4472413;32;34061;-82
2022/09/18 05:15:30;;;;;;;;;;;;;;;14.85;47.76;98464.28;4468416;32;34091;-84
2022/09/18 05:18:00;;;;;;;;;;;;;;;15.00;47.51;98469.25;4468283;32;34281;-83
2022/09/18 05:20:29;;;;;;;;;;;;;;;15.37;47.46;98467.75;4456360;32;34452;-82
2022/09/18 05:22:59;;;;;;;;;;;;;;;15.31;47.35;98463.53;4483591;32;34930;-81
2022/09/18 05:25:27;;;;;;;;;;;;;;;15.62;46.04;98462.97;4483925;32;33381;-82
2022/09/18 05:27:56;;;;;;;;;;;;;;;14.76;47.69;98470.50;4455544;32;32759;-85
2022/09/18 05:30:23;;;;;;;;;;;;;;;15.40;46.68;98463.34;4461777;32;34797;-85
2022/09/18 05:32:55;;;;;;;;;;;;;;;15.40;46.71;98473.78;4476106;32;35233;-87
2022/09/18 05:35:26;;;;;;;;;;;;;;;14.93;47.89;98478.06;4469397;32;32938;-85
2022/09/18 05:37:53;;;;;;;;;;;;;;;16.20;45.74;98467.06;4475702;32;34142;-86
2022/09/18 05:40:22;;;;;;;;;;;;;;;16.30;45.07;98471.22;4471293;32;34362;-82
2022/09/18 05:42:51;;;;;;;;;;;;;;;17.00;43.24;98467.00;4469091;32;35263;-83
2022/09/18 05:45:19;;;;;;;;;;;;;;;16.75;45.56;98477.19;4483584;32;36078;-87
2022/09/18 05:47:57;;;;;;;;;;;;;;;16.93;44.21;98469.78;4468901;32;33043;-86
2022/09/18 05:50:25;;;;;;;;;;;;;;;16.40;46.42;98470.13;4479634;32;33823;-83
2022/09/18 05:53:11;;;;;;;;;;;;;;;15.40;47.70;98476.41;4461048;32;33812;-86
2022/09/18 05:55:39;;;;;;;;;;;;;;;16.23;46.12;98480.94;4464443;32;33978;-83
2022/09/18 05:58:11;;;;;;;;;;;;;;;16.39;45.57;98478.84;4468097;32;33862;-83
2022/09/18 06:00:39;;;;;;;;;;;;;;;16.58;45.49;98481.91;4471817;32;34376;-83
2022/09/18 06:03:13;;;;;;;;;;;;;;;16.27;46.22;98471.25;4482472;32;33973;-84
2022/09/18 06:05:40;;;;;;;;;;;;;;;16.51;45.27;98489.03;4483492;32;34236;-82
2022/09/18 06:08:09;;;;;;;;;;;;;;;15.98;47.05;98477.94;4467896;32;35007;-81
2022/09/18 06:10:38;;;;;;;;;;;;;;;15.45;48.17;98482.41;4468003;32;35096;-81
2022/09/18 06:13:06;;;;;;;;;;;;;;;15.48;47.77;98486.72;4467444;32;34940;-84
2022/09/18 06:15:38;;;;;;;;;;;;;;;15.04;48.84;98484.00;4468370;32;33221;-82
2022/09/18 06:18:07;;;;;;;;;;;;;;;15.18;48.75;98498.56;4468152;32;33944;-86
2022/09/18 06:20:35;;;;;;;;;;;;;;;14.87;49.74;98490.34;4468233;32;34404;-84
2022/09/18 06:23:03;;;;;;;;;;;;;;;14.98;49.42;98504.09;4467636;32;34066;-86
2022/09/18 06:25:31;;;;;;;;;;;;;;;14.84;50.07;98506.91;4454736;32;34105;-85
2022/09/18 06:27:59;;;;;;;;;;;;;;;15.60;48.03;98498.69;4468100;32;33885;-87
2022/09/18 06:30:27;;;;;;;;;;;;;;;15.18;48.85;98509.00;4467448;32;34400;-82
2022/09/18 06:32:55;;;;;;;;;;;;;;;15.26;48.87;98512.34;4452737;32;35218;-85
2022/09/18 06:35:23;;;;;;;;;;;;;;;15.20;48.82;98513.31;4468093;32;33735;-81
2022/09/18 06:37:50;;;;;;;;;;;;;;;14.69;50.06;98514.97;4467472;32;34139;-83
2022/09/18 06:40:17;;;;;;;;;;;;;;;15.21;49.37;98514.16;4467614;32;35190;-87
2022/09/18 06:42:45;;;;;;;;;;;;;;;14.97;49.06;98516.28;4467761;32;33951;-83
2022/09/18 06:45:14;;;;;;;;;;;;;;;15.92;47.18;98503.38;4467608;32;33516;-83
2022/09/18 06:47:43;;;;;;;;;;;;;;;15.86;47.58;98501.72;4467967;32;34218;-86
2022/09/18 06:50:11;;;;;;;;;;;;;;;14.69;50.13;98504.53;4467347;32;34258;-81
2022/09/18 06:52:38;;;;;;;;;;;;;;;15.30;49.58;98498.34;4467306;32;33800;-82
2022/09/18 06:55:05;;;;;;;;;;;;;;;15.37;49.37;98509.56;4467753;32;33731;-81
2022/09/18 06:57:33;;;;;;;;;;;;;;;15.80;47.77;98492.25;4467583;32;34764;-87
2022/09/18 07:00:00;;;;;;;;;;;;;;;15.36;48.21;98511.31;4467711;32;33831;-87
2022/09/18 07:02:27;;;;;;;;;;;;;;;15.71;46.91;98496.78;4467837;32;33892;-82
2022/09/18 07:04:57;;;;;;;;;;;;;;;15.72;47.68;98496.78;4467823;32;33204;-82
2022/09/18 07:07:24;;;;;;;;;;;;;;;15.52;48.91;98498.84;4467056;32;34107;-84
2022/09/18 07:09:51;;;;;;;;;;;;;;;15.13;48.47;98509.06;4467664;32;34118;-83
2022/09/18 07:12:20;;;;;;;;;;;;;;;15.43;47.45;98510.31;4467182;32;34328;-82
2022/09/18 07:14:47;;;;;;;;;;;;;;;15.92;46.67;98498.13;4467264;32;33292;-81
2022/09/18 07:17:14;;;;;;;;;;;;;;;15.15;46.96;98506.44;4467454;32;34142;-82
2022/09/18 07:19:47;;;;;;;;;;;;;;;15.40;47.62;98515.59;4467624;32;34389;-82
2022/09/18 07:22:15;;;;;;;;;;;;;;;15.18;46.44;98522.03;4466929;32;34169;-83
2022/09/18 07:24:42;;;;;;;;;;;;;;;15.58;44.95;98502.19;4467116;32;33372;-82
2022/09/18 07:27:09;;;;;;;;;;;;;;;15.42;45.94;98513.81;4466948;32;34298;-82
2022/09/18 07:29:39;;;;;;;;;;;;;;;15.37;46.06;98531.31;4467012;32;34384;-82
2022/09/18 07:32:07;;;;;;;;;;;;;;;15.82;44.85;98527.03;4475780;31;33915;-82
2022/09/18 07:34:36;;;;;;;;;;;;;;;15.76;45.03;98518.47;4483179;32;33574;-83
2022/09/18 07:37:03;;;;;;;;;;;;;;;15.39;44.71;98521.69;4472132;32;33969;-81
2022/09/18 07:39:30;;;;;;;;;;;;;;;15.19;44.46;98523.75;4467203;32;34237;-82
2022/09/18 07:42:01;;;;;;;;;;;;;;;14.98;45.98;98551.94;4470597;32;34253;-82
2022/09/18 07:44:35;;;;;;;;;;;;;;;15.80;44.53;98533.22;4480440;32;34088;-85
2022/09/18 07:47:03;;;;;;;;;;;;;;;15.51;44.55;98539.78;4482270;32;34194;-82
2022/09/18 07:49:31;;;;;;;;;;;;;;;15.11;44.56;98543.91;4472818;32;34321;-82
2022/09/18 07:52:00;;;;;;;;;;;;;;;15.05;45.59;98535.31;4467221;32;34149;-81
2022/09/18 07:54:29;;;;;;;;;;;;;;;15.48;45.72;98545.03;4477125;32;33382;-84
2022/09/18 07:56:56;;;;;;;;;;;;;;;15.66;45.19;98545.66;4468553;32;33874;-82
2022/09/18 07:59:26;;;;;;;;;;;;;;;16.35;43.31;98533.88;4471195;32;34039;-83
2022/09/18 08:01:54;;;;;;;;;;;;;;;16.10;43.92;98529.16;4469251;32;34958;-86
2022/09/18 08:04:22;;;;;;;;;;;;;;;15.82;43.66;98553.19;4482689;32;33276;-81
2022/09/18 08:07:02;;;;;;;;;;;;;;;16.10;43.52;98539.63;4482614;32;35077;-82
2022/09/18 08:09:30;;;;;;;;;;;;;;;16.37;43.43;98547.81;4471713;31;34810;-80
2022/09/18 08:11:57;;;;;;;;;;;;;;;15.83;44.24;98546.19;4477786;32;34316;-81
2022/09/18 08:14:24;;;;;;;;;;;;;;;15.78;44.75;98561.13;4469526;32;33649;-84
2022/09/18 08:16:56;;;;;;;;;;;;;;;16.28;44.48;98565.38;4471258;32;34113;-80
2022/09/18 08:19:23;;;;;;;;;;;;;;;16.92;42.52;98555.34;4474741;32;34216;-81
2022/09/18 08:21:51;;;;;;;;;;;;;;;16.39;43.86;98551.22;4473791;31;33596;-82
2022/09/18 08:24:20;;;;;;;;;;;;;;;17.25;42.64;98550.22;4471286;32;34040;-78
2022/09/18 08:26:49;;;;;;;;;;;;;;;17.31;41.85;98550.06;4472561;32;34074;-82
2022/09/18 08:29:18;;;;;;;;;;;;;;;17.52;42.77;98559.16;4470693;32;34336;-82
2022/09/18 08:31:47;;;;;;;;;;;;;;;17.07;41.88;98550.66;4469955;32;34740;-83
2022/09/18 08:34:14;;;;;;;;;;;;;;;16.54;43.57;98561.37;4470340;32;32681;-84
2022/09/18 08:36:42;;;;;;;;;;;;;;;16.61;42.31;98554.28;4455433;32;35141;-84
2022/09/18 08:39:09;;;;;;;;;;;;;;;16.81;42.38;98551.25;4470649;32;35154;-82
2022/09/18 08:41:54;;;;;;;;;;;;;;;16.17;42.59;98553.41;4474584;32;34791;-83
2022/09/18 08:44:24;;;;;;;;;;;;;;;16.83;42.87;98552.94;4474105;32;33996;-82
2022/09/18 08:47:03;;;;;;;;;;;;;;;17.01;42.05;98562.16;4456218;32;34219;-83
2022/09/18 08:49:40;;;;;;;;;;;;;;;17.31;41.47;98565.78;4472214;32;34489;-81
2022/09/18 08:52:16;;;;;;;;;;;;;;;17.39;40.83;98558.63;4460371;32;35038;-82
2022/09/18 08:54:55;;;;;;;;;;;;;;;16.46;42.09;98563.31;4471980;32;33387;-81
2022/09/18 08:57:27;;;;;;;;;;;;;;;17.70;39.80;98574.44;4459411;32;34148;-83
2022/09/18 08:59:58;;;;;;;;;;;;;;;17.24;40.39;98572.09;4460897;32;35255;-80
2022/09/18 09:02:51;;;;;;;;;;;;;;;17.19;40.37;98566.06;4462660;32;35193;-81
2022/09/18 09:05:20;;;;;;;;;;;;;;;16.70;42.49;98569.75;4474630;32;33320;-86
2022/09/18 09:08:10;;;;;;;;;;;;;;;16.66;41.61;98576.81;4474905;32;33555;-82
2022/09/18 09:10:38;;;;;;;;;;;;;;;17.30;40.68;98571.91;4459610;32;34547;-83
2022/09/18 09:13:12;;;;;;;;;;;;;;;17.62;40.57;98581.63;4473312;32;34224;-85
2022/09/18 09:15:58;;;;;;;;;;;;;;;16.83;41.66;98584.34;4458663;32;32719;-81
2022/09/18 09:18:37;;;;;;;;;;;;;;;16.75;42.08;98583.66;4457906;32;34391;-83
2022/09/18 09:21:12;;;;;;;;;;;;;;;16.87;41.97;98583.37;4461225;32;35304;-80
2022/09/18 09:23:58;;;;;;;;;;;;;;;16.38;42.07;98584.37;4472398;32;33350;-80
2022/09/18 09:26:33;;;;;;;;;;;;;;;16.71;42.26;98582.84;4472861;32;32307;-81
2022/09/18 09:29:03;;;;;;;;;;;;;;;16.87;41.16;98575.53;4457028;32;35005;-80
2022/09/18 09:31:37;;;;;;;;;;;;;;;16.98;41.35;98584.00;4454571;32;32998;-80
2022/09/18 09:34:18;;;;;;;;;;;;;;;16.50;42.54;98581.50;4461872;32;34335;-83
2022/09/18 09:36:47;;;;;;;;;;;;;;;17.25;41.66;98585.13;4457402;32;33795;-80
2022/09/18 09:39:35;;;;;;;;;;;;;;;17.14;40.87;98571.44;4445466;32;35341;-80
2022/09/18 09:42:07;;;;;;;;;;;;;;;17.25;39.99;98597.38;4477867;32;33987;-82
2022/09/18 09:44:37;;;;;;;;;;;;;;;16.86;41.37;98586.91;4459891;32;35065;-80
2022/09/18 09:47:04;;;;;;;;;;;;;;;17.04;40.75;98583.00;4457933;32;33711;-80
2022/09/18 09:49:37;;;;;;;;;;;;;;;16.83;40.36;98591.34;4471150;32;34193;-82
2022/09/18 09:52:11;;;;;;;;;;;;;;;16.61;42.28;98604.00;4471391;32;34502;-80
2022/09/18 09:54:40;;;;;;;;;;;;;;;16.13;43.32;98606.66;4466375;32;33829;-82
2022/09/18 09:57:08;;;;;;;;;;;;;;;16.62;42.81;98613.56;4466656;32;32932;-82
2022/09/18 09:59:35;;;;;;;;;;;;;;;16.43;43.08;98606.06;4475601;32;34871;-82
2022/09/18 10:02:16;;;;;;;;;;;;;;;16.90;42.28;98599.03;4471667;32;34230;-81
2022/09/18 10:04:51;;;;;;;;;;;;;;;16.90;42.55;98609.50;4458600;32;34713;-80
2022/09/18 10:07:22;;;;;;;;;;;;;;;16.64;42.91;98591.72;4456265;32;33291;-82
2022/09/18 10:09:57;;;;;;;;;;;;;;;16.35;43.45;98602.75;4453535;32;34065;-81
2022/09/18 10:12:43;;;;;;;;;;;;;;;16.61;40.54;98619.69;4466575;32;33813;-79
2022/09/18 10:15:13;;;;;;;;;;;;;;;17.14;40.89;98609.84;4461831;32;35029;-81
2022/09/18 10:17:40;;;;;;;;;;;;;;;17.48;40.17;98623.91;4462319;32;33869;-79
2022/09/18 10:20:10;;;;;;;;;;;;;;;16.59;41.18;98606.63;4450740;32;34844;-80
2022/09/18 10:22:37;;;;;;;;;;;;;;;16.54;41.26;98606.72;4450194;32;34500;-80
2022/09/18 10:25:06;;;;;;;;;;;;;;;15.81;42.83;98621.19;4453208;32;34705;-79
2022/09/18 10:27:34;;;;;;;;;;;;;;;15.14;43.69;98623.06;4458165;32;33445;-81
2022/09/18 10:30:12;;;;;;;;;;;;;;;15.82;44.05;98612.44;4453840;32;35172;-80
2022/09/18 10:32:43;;;;;;;;;;;;;;;15.62;43.01;98604.91;4450992;32;34425;-81
2022/09/18 10:35:37;;;;;;;;;;;;;;;16.47;41.76;98610.34;4451428;32;33840;-82
2022/09/18 10:38:08;;;;;;;;;;;;;;;16.01;41.80;98608.59;4460930;32;34275;-83
2022/09/18 10:40:38;;;;;;;;;;;;;;;15.94;41.52;98621.81;4454571;32;33801;-83
2022/09/18 10:43:06;;;;;;;;;;;;;;;16.43;41.78;98620.91;4452464;32;35143;-83
2022/09/18 10:45:36;;;;;;;;;;;;;;;16.26;41.95;98609.03;4450698;32;35043;-81
2022/09/18 10:48:12;;;;;;;;;;;;;;;16.90;40.36;98606.91;4465974;32;34005;-78
2022/09/18 10:50:50;;;;;;;;;;;;;;;17.11;39.25;98612.53;4456804;32;33776;-81
2022/09/18 10:53:29;;;;;;;;;;;;;;;16.72;41.11;98612.47;4466367;32;35112;-82
2022/09/18 10:56:02;;;;;;;;;;;;;;;16.83;41.04;98623.63;4467444;32;34181;-84
2022/09/18 10:58:30;;;;;;;;;;;;;;;17.21;40.74;98621.91;4467703;32;32858;-83
2022/09/18 11:00:59;;;;;;;;;;;;;;;17.85;39.41;98623.03;4460613;32;35048;-80
2022/09/18 11:03:39;;;;;;;;;;;;;;;18.13;39.85;98620.53;4452781;32;34947;-84
2022/09/18 11:06:17;;;;;;;;;;;;;;;18.45;39.78;98619.69;4467113;32;34018;-82
2022/09/18 11:08:45;;;;;;;;;;;;;;;18.55;38.54;98620.28;4453659;32;33431;-84
2022/09/18 11:11:21;;;;;;;;;;;;;;;19.25;37.88;98622.63;4456778;32;34163;-85
2022/09/18 11:13:50;;;;;;;;;;;;;;;18.57;38.71;98620.25;4453357;32;34291;-82
2022/09/18 11:16:24;;;;;;;;;;;;;;;18.01;38.46;98622.63;4470200;32;34524;-82
2022/09/18 11:19:06;;;;;;;;;;;;;;;17.78;39.05;98617.97;4457964;32;33531;-82
2022/09/18 11:21:45;;;;;;;;;;;;;;;18.22;38.67;98622.94;4457483;32;34300;-80
2022/09/18 11:24:18;;;;;;;;;;;;;;;18.60;38.02;98630.63;4453913;32;34025;-81
2022/09/18 11:26:48;;;;;;;;;;;;;;;19.11;37.30;98624.81;4458094;32;34774;-75
2022/09/18 11:29:17;;;;;;;;;;;;;;;19.08;37.69;98622.25;4453771;32;33340;-81
2022/09/18 11:31:45;;;;;;;;;;;;;;;18.66;37.08;98628.69;4468837;32;33912;-82
2022/09/18 11:34:16;;;;;;;;;;;;;;;18.36;38.01;98619.91;4461867;32;34731;-81
2022/09/18 11:36:45;;;;;;;;;;;;;;;18.94;36.48;98620.94;4461546;32;34412;-81
2022/09/18 11:39:14;;;;;;;;;;;;;;;19.44;36.57;98623.75;4478132;32;33390;-83
2022/09/18 11:41:42;;;;;;;;;;;;;;;18.77;36.46;98612.69;4477270;32;33824;-81
2022/09/18 11:44:36;;;;;;;;;;;;;;;17.71;37.97;98614.59;4466748;32;34624;-80
2022/09/18 11:47:08;;;;;;;;;;;;;;;18.65;37.80;98618.25;4473768;32;34025;-81
2022/09/18 11:49:41;;;;;;;;;;;;;;;18.58;36.37;98608.84;4452848;32;33276;-79
2022/09/18 11:52:14;;;;;;;;;;;;;;;18.78;35.94;98603.88;4454231;32;33991;-82
2022/09/18 11:54:48;;;;;;;;;;;;;;;18.84;36.58;98608.97;4453025;32;34044;-83
2022/09/18 11:57:16;;;;;;;;;;;;;;;19.10;36.41;98615.22;4456587;32;34135;-81
2022/09/18 11:59:46;;;;;;;;;;;;;;;18.43;37.06;98607.50;4454251;32;34312;-84
2022/09/18 12:02:20;;;;;;;;;;;;;;;18.47;37.05;98604.72;4479399;32;33972;-81
2022/09/18 12:04:55;;;;;;;;;;;;;;;18.10;37.25;98601.41;4468689;32;34979;-81
2022/09/18 12:07:28;;;;;;;;;;;;;;;19.17;35.17;98595.72;4467483;32;33531;-84
2022/09/18 12:10:14;;;;;;;;;;;;;;;19.85;34.45;98597.03;4481907;32;33473;-81
2022/09/18 12:12:47;;;;;;;;;;;;;;;20.12;34.91;98592.63;4475285;32;34168;-82
2022/09/18 12:15:25;;;;;;;;;;;;;;;19.51;34.23;98590.25;4452485;32;34575;-82
2022/09/18 12:17:54;;;;;;;;;;;;;;;20.15;32.96;98589.84;4466427;32;33579;-81
2022/09/18 12:20:40;;;;;;;;;;;;;;;20.42;32.51;98590.66;4452464;32;33634;-84
2022/09/18 12:23:12;;;;;;;;;;;;;;;20.53;33.14;98590.28;4452328;32;34739;-83
2022/09/18 12:25:58;;;;;;;;;;;;;;;19.74;33.10;98586.91;4457599;32;34438;-82
2022/09/18 12:28:39;;;;;;;;;;;;;;;19.58;33.05;98590.87;4470515;32;34244;-82
2022/09/18 12:31:12;;;;;;;;;;;;;;;20.34;33.13;98580.41;4467890;32;34582;-81
2022/09/18 12:33:56;;;;;;;;;;;;;;;19.41;32.22;98586.19;4469977;32;34962;-81
2022/09/18 12:36:42;;;;;;;;;;;;;;;19.93;32.47;98569.56;4468441;32;35039;-81
2022/09/18 12:39:14;;;;;;;;;;;;;;;20.05;32.34;98578.81;4468656;32;33889;-82
2022/09/18 12:41:41;;;;;;;;;;;;;;;19.97;32.65;98585.25;4454645;32;33320;-83
2022/09/18 12:44:13;;;;;;;;;;;;;;;20.09;31.90;98590.09;4468169;32;32886;-81
2022/09/18 12:46:40;;;;;;;;;;;;;;;19.51;32.21;98586.75;4467874;32;34150;-83
2022/09/18 12:49:26;;;;;;;;;;;;;;;19.26;32.55;98582.28;4468103;32;34950;-85
2022/09/18 12:52:01;;;;;;;;;;;;;;;19.92;31.80;98580.12;4468043;32;34303;-84
2022/09/18 12:54:31;;;;;;;;;;;;;;;20.74;29.55;98576.31;4453840;32;34762;-82
2022/09/18 12:57:05;;;;;;;;;;;;;;;20.34;30.45;98588.31;4467505;32;35063;-81
2022/09/18 12:59:38;;;;;;;;;;;;;;;19.31;31.51;98572.47;4468128;32;34916;-81
2022/09/18 13:02:05;;;;;;;;;;;;;;;20.36;30.24;98581.19;4439955;32;941208;-82
2022/09/18 13:04:35;;;;;;;;;;;;;;;20.96;28.91;98576.34;4467803;32;34031;-84
2022/09/18 13:07:13;;;;;;;;;;;;;;;20.96;29.28;98584.25;4444010;32;35315;-82
2022/09/18 13:09:44;;;;;;;;;;;;;;;21.37;29.14;98585.31;4453822;32;34736;-80